sensor_id;sensor_type;location;lat;lon;timestamp;temperature;humidity
71173;DHT22;58875;51.996;4.504;2023-06-22T00:02:13;19.11;75.98
71173;DHT22;58875;51.996;4.504;2023-06-22T00:04:39;19.05;76.33
71173;DHT22;58875;51.996;4.504;2023-06-22T00:07:05;19.05;76.40
71173;DHT22;58875;51.996;4.504;2023-06-22T00:09:31;19.01;76.68
71173;DHT22;58875;51.996;4.504;2023-06-22T00:11:57;19.02;76.51
71173;DHT22;58875;51.996;4.504;2023-06-22T00:14:22;19.03;76.46
71173;DHT22;58875;51.996;4.504;2023-06-22T00:16:48;18.98;76.59
71173;DHT22;58875;51.996;4.504;2023-06-22T00:19:15;18.98;76.64
71173;DHT22;58875;51.996;4.504;2023-06-22T00:21:41;18.95;76.66
71173;DHT22;58875;51.996;4.504;2023-06-22T00:24:08;18.94;76.72
71173;DHT22;58875;51.996;4.504;2023-06-22T00:26:34;18.89;76.71
71173;DHT22;58875;51.996;4.504;2023-06-22T00:28:59;18.91;77.10
71173;DHT22;58875;51.996;4.504;2023-06-22T00:31:25;18.87;77.15
71173;DHT22;58875;51.996;4.504;2023-06-22T00:33:50;18.89;76.91
71173;DHT22;58875;51.996;4.504;2023-06-22T00:36:16;18.91;76.69
71173;DHT22;58875;51.996;4.504;2023-06-22T00:38:44;18.92;76.90
71173;DHT22;58875;51.996;4.504;2023-06-22T00:41:10;18.91;76.73
71173;DHT22;58875;51.996;4.504;2023-06-22T00:43:35;18.88;77.11
71173;DHT22;58875;51.996;4.504;2023-06-22T00:46:01;18.87;77.22
71173;DHT22;58875;51.996;4.504;2023-06-22T00:48:27;18.85;77.20
71173;DHT22;58875;51.996;4.504;2023-06-22T00:50:53;18.82;77.16
71173;DHT22;58875;51.996;4.504;2023-06-22T00:53:21;18.81;77.33
71173;DHT22;58875;51.996;4.504;2023-06-22T00:55:47;18.76;76.86
71173;DHT22;58875;51.996;4.504;2023-06-22T00:58:13;18.74;77.28
71173;DHT22;58875;51.996;4.504;2023-06-22T01:00:40;18.76;77.16
71173;DHT22;58875;51.996;4.504;2023-06-22T01:03:07;18.74;77.15
71173;DHT22;58875;51.996;4.504;2023-06-22T01:05:37;18.71;77.44
71173;DHT22;58875;51.996;4.504;2023-06-22T01:08:33;18.68;77.42
71173;DHT22;58875;51.996;4.504;2023-06-22T01:11:16;18.67;77.57
71173;DHT22;58875;51.996;4.504;2023-06-22T01:16:31;18.65;77.64
71173;DHT22;58875;51.996;4.504;2023-06-22T01:19:01;18.65;77.48
71173;DHT22;58875;51.996;4.504;2023-06-22T01:21:31;18.62;77.58
71173;DHT22;58875;51.996;4.504;2023-06-22T01:24:20;18.58;77.90
71173;DHT22;58875;51.996;4.504;2023-06-22T01:29:37;18.57;77.88
71173;DHT22;58875;51.996;4.504;2023-06-22T01:32:06;18.51;77.92
71173;DHT22;58875;51.996;4.504;2023-06-22T01:34:33;18.50;78.06
71173;DHT22;58875;51.996;4.504;2023-06-22T01:37:01;18.50;78.03
71173;DHT22;58875;51.996;4.504;2023-06-22T01:39:29;18.48;77.88
71173;DHT22;58875;51.996;4.504;2023-06-22T01:41:56;18.47;77.85
71173;DHT22;58875;51.996;4.504;2023-06-22T01:44:25;18.45;78.01
71173;DHT22;58875;51.996;4.504;2023-06-22T01:46:52;18.45;77.95
71173;DHT22;58875;51.996;4.504;2023-06-22T01:49:18;18.50;78.01
71173;DHT22;58875;51.996;4.504;2023-06-22T01:51:43;18.45;77.86
71173;DHT22;58875;51.996;4.504;2023-06-22T01:54:09;18.45;77.74
71173;DHT22;58875;51.996;4.504;2023-06-22T01:56:35;18.41;77.70
71173;DHT22;58875;51.996;4.504;2023-06-22T01:59:11;18.38;77.63
71173;DHT22;58875;51.996;4.504;2023-06-22T02:01:44;18.40;77.65
71173;DHT22;58875;51.996;4.504;2023-06-22T02:04:21;18.36;77.67
71173;DHT22;58875;51.996;4.504;2023-06-22T02:06:55;18.34;77.87
71173;DHT22;58875;51.996;4.504;2023-06-22T02:09:23;18.30;77.95
71173;DHT22;58875;51.996;4.504;2023-06-22T02:11:53;18.23;78.02
71173;DHT22;58875;51.996;4.504;2023-06-22T02:14:22;18.20;77.78
71173;DHT22;58875;51.996;4.504;2023-06-22T02:16:50;18.13;77.67
71173;DHT22;58875;51.996;4.504;2023-06-22T02:19:16;18.03;78.08
71173;DHT22;58875;51.996;4.504;2023-06-22T02:21:45;18.04;78.20
71173;DHT22;58875;51.996;4.504;2023-06-22T02:24:10;18.06;78.07
71173;DHT22;58875;51.996;4.504;2023-06-22T02:26:37;18.06;78.11
71173;DHT22;58875;51.996;4.504;2023-06-22T02:29:05;18.04;78.32
71173;DHT22;58875;51.996;4.504;2023-06-22T02:31:31;18.03;78.42
71173;DHT22;58875;51.996;4.504;2023-06-22T02:33:58;18.03;78.05
71173;DHT22;58875;51.996;4.504;2023-06-22T02:36:24;18.00;78.34
71173;DHT22;58875;51.996;4.504;2023-06-22T02:38:50;17.99;78.58
71173;DHT22;58875;51.996;4.504;2023-06-22T02:41:16;18.03;78.63
71173;DHT22;58875;51.996;4.504;2023-06-22T02:43:45;18.06;78.43
71173;DHT22;58875;51.996;4.504;2023-06-22T02:46:11;18.06;78.58
71173;DHT22;58875;51.996;4.504;2023-06-22T02:48:41;18.03;78.49
71173;DHT22;58875;51.996;4.504;2023-06-22T02:51:07;18.00;78.65
71173;DHT22;58875;51.996;4.504;2023-06-22T02:53:32;18.00;78.64
71173;DHT22;58875;51.996;4.504;2023-06-22T02:55:58;17.96;78.69
71173;DHT22;58875;51.996;4.504;2023-06-22T02:58:26;17.93;78.88
71173;DHT22;58875;51.996;4.504;2023-06-22T03:00:52;17.94;79.12
71173;DHT22;58875;51.996;4.504;2023-06-22T03:03:19;17.94;78.91
71173;DHT22;58875;51.996;4.504;2023-06-22T03:05:44;17.97;79.00
71173;DHT22;58875;51.996;4.504;2023-06-22T03:08:13;17.97;79.14
71173;DHT22;58875;51.996;4.504;2023-06-22T03:10:38;17.94;78.88
71173;DHT22;58875;51.996;4.504;2023-06-22T03:13:04;17.94;78.73
71173;DHT22;58875;51.996;4.504;2023-06-22T03:15:30;17.87;78.81
71173;DHT22;58875;51.996;4.504;2023-06-22T03:17:56;17.87;78.93
71173;DHT22;58875;51.996;4.504;2023-06-22T03:20:22;17.86;78.91
71173;DHT22;58875;51.996;4.504;2023-06-22T03:22:48;17.86;79.08
71173;DHT22;58875;51.996;4.504;2023-06-22T03:25:14;17.79;78.98
71173;DHT22;58875;51.996;4.504;2023-06-22T03:27:41;17.81;79.20
71173;DHT22;58875;51.996;4.504;2023-06-22T03:30:08;17.79;79.43
71173;DHT22;58875;51.996;4.504;2023-06-22T03:32:34;17.79;79.69
71173;DHT22;58875;51.996;4.504;2023-06-22T03:35:00;17.87;79.60
71173;DHT22;58875;51.996;4.504;2023-06-22T03:37:26;17.90;79.38
71173;DHT22;58875;51.996;4.504;2023-06-22T03:39:52;17.90;79.55
71173;DHT22;58875;51.996;4.504;2023-06-22T03:42:18;17.94;79.51
71173;DHT22;58875;51.996;4.504;2023-06-22T03:44:43;17.89;79.25
71173;DHT22;58875;51.996;4.504;2023-06-22T03:47:09;17.90;79.27
71173;DHT22;58875;51.996;4.504;2023-06-22T03:49:35;17.85;79.10
71173;DHT22;58875;51.996;4.504;2023-06-22T03:52:02;17.85;79.17
71173;DHT22;58875;51.996;4.504;2023-06-22T03:54:29;17.86;79.23
71173;DHT22;58875;51.996;4.504;2023-06-22T03:56:56;17.86;79.50
71173;DHT22;58875;51.996;4.504;2023-06-22T03:59:22;17.92;79.56
71173;DHT22;58875;51.996;4.504;2023-06-22T04:01:50;17.93;79.64
71173;DHT22;58875;51.996;4.504;2023-06-22T04:04:17;17.93;79.70
71173;DHT22;58875;51.996;4.504;2023-06-22T04:06:43;17.96;79.49
71173;DHT22;58875;51.996;4.504;2023-06-22T04:09:08;18.03;79.75
71173;DHT22;58875;51.996;4.504;2023-06-22T04:11:36;18.03;79.81
71173;DHT22;58875;51.996;4.504;2023-06-22T04:14:02;18.04;79.66
71173;DHT22;58875;51.996;4.504;2023-06-22T04:16:27;18.06;79.71
71173;DHT22;58875;51.996;4.504;2023-06-22T04:18:56;18.13;79.74
71173;DHT22;58875;51.996;4.504;2023-06-22T04:21:21;18.18;79.76
71173;DHT22;58875;51.996;4.504;2023-06-22T04:23:47;18.23;79.57
71173;DHT22;58875;51.996;4.504;2023-06-22T04:26:16;18.24;79.73
71173;DHT22;58875;51.996;4.504;2023-06-22T04:28:49;18.31;79.63
71173;DHT22;58875;51.996;4.504;2023-06-22T04:31:22;18.34;79.50
71173;DHT22;58875;51.996;4.504;2023-06-22T04:34:00;18.40;79.60
71173;DHT22;58875;51.996;4.504;2023-06-22T04:36:36;18.43;79.90
71173;DHT22;58875;51.996;4.504;2023-06-22T04:42:01;18.62;79.53
71173;DHT22;58875;51.996;4.504;2023-06-22T04:44:27;18.74;79.37
71173;DHT22;58875;51.996;4.504;2023-06-22T04:47:00;18.85;79.39
71173;DHT22;58875;51.996;4.504;2023-06-22T04:49:28;18.98;79.10
71173;DHT22;58875;51.996;4.504;2023-06-22T04:52:04;19.05;78.63
71173;DHT22;58875;51.996;4.504;2023-06-22T04:54:31;19.09;78.56
71173;DHT22;58875;51.996;4.504;2023-06-22T04:57:04;19.15;78.43
71173;DHT22;58875;51.996;4.504;2023-06-22T04:59:31;19.15;78.30
71173;DHT22;58875;51.996;4.504;2023-06-22T05:01:58;19.16;78.41
71173;DHT22;58875;51.996;4.504;2023-06-22T05:04:25;19.20;78.51
71173;DHT22;58875;51.996;4.504;2023-06-22T05:06:51;19.26;78.60
71173;DHT22;58875;51.996;4.504;2023-06-22T05:09:17;19.36;78.25
71173;DHT22;58875;51.996;4.504;2023-06-22T05:11:44;19.45;78.38
71173;DHT22;58875;51.996;4.504;2023-06-22T05:14:10;19.50;78.25
71173;DHT22;58875;51.996;4.504;2023-06-22T05:16:36;19.54;77.89
71173;DHT22;58875;51.996;4.504;2023-06-22T05:19:02;19.60;78.21
71173;DHT22;58875;51.996;4.504;2023-06-22T05:21:30;19.67;77.63
71173;DHT22;58875;51.996;4.504;2023-06-22T05:23:58;19.75;77.51
71173;DHT22;58875;51.996;4.504;2023-06-22T05:26:26;19.73;77.08
71173;DHT22;58875;51.996;4.504;2023-06-22T05:28:52;19.80;76.67
71173;DHT22;58875;51.996;4.504;2023-06-22T05:31:19;19.85;76.80
71173;DHT22;58875;51.996;4.504;2023-06-22T05:33:46;19.87;76.39
71173;DHT22;58875;51.996;4.504;2023-06-22T05:36:12;19.81;76.49
71173;DHT22;58875;51.996;4.504;2023-06-22T05:38:44;19.78;76.47
71173;DHT22;58875;51.996;4.504;2023-06-22T05:41:10;19.81;76.14
71173;DHT22;58875;51.996;4.504;2023-06-22T05:43:36;19.84;76.35
71173;DHT22;58875;51.996;4.504;2023-06-22T05:46:03;19.98;76.75
71173;DHT22;58875;51.996;4.504;2023-06-22T05:48:29;20.13;76.31
71173;DHT22;58875;51.996;4.504;2023-06-22T05:50:55;20.18;75.57
71173;DHT22;58875;51.996;4.504;2023-06-22T05:53:20;20.07;75.70
71173;DHT22;58875;51.996;4.504;2023-06-22T05:55:46;20.13;75.83
71173;DHT22;58875;51.996;4.504;2023-06-22T05:58:12;20.17;75.75
71173;DHT22;58875;51.996;4.504;2023-06-22T06:00:56;20.28;75.91
71173;DHT22;58875;51.996;4.504;2023-06-22T06:03:22;20.39;75.63
71173;DHT22;58875;51.996;4.504;2023-06-22T06:06:03;20.53;75.55
71173;DHT22;58875;51.996;4.504;2023-06-22T06:08:32;20.59;74.70
71173;DHT22;58875;51.996;4.504;2023-06-22T06:10:57;20.44;74.31
71173;DHT22;58875;51.996;4.504;2023-06-22T06:13:26;20.29;75.30
71173;DHT22;58875;51.996;4.504;2023-06-22T06:15:54;20.42;75.80
71173;DHT22;58875;51.996;4.504;2023-06-22T06:18:23;20.61;75.70
71173;DHT22;58875;51.996;4.504;2023-06-22T06:20:49;20.65;74.38
71173;DHT22;58875;51.996;4.504;2023-06-22T06:23:14;20.55;74.69
71173;DHT22;58875;51.996;4.504;2023-06-22T06:25:50;20.59;75.19
71173;DHT22;58875;51.996;4.504;2023-06-22T06:28:26;20.75;75.02
71173;DHT22;58875;51.996;4.504;2023-06-22T06:30:52;20.73;74.43
71173;DHT22;58875;51.996;4.504;2023-06-22T06:33:18;20.82;74.88
71173;DHT22;58875;51.996;4.504;2023-06-22T06:35:44;20.89;74.96
71173;DHT22;58875;51.996;4.504;2023-06-22T06:38:12;21.08;74.76
71173;DHT22;58875;51.996;4.504;2023-06-22T06:40:38;21.16;74.15
71173;DHT22;58875;51.996;4.504;2023-06-22T06:43:03;21.31;74.23
71173;DHT22;58875;51.996;4.504;2023-06-22T06:45:29;21.41;73.95
71173;DHT22;58875;51.996;4.504;2023-06-22T06:47:56;21.50;73.43
71173;DHT22;58875;51.996;4.504;2023-06-22T06:50:22;21.57;73.28
71173;DHT22;58875;51.996;4.504;2023-06-22T06:52:50;21.54;72.67
71173;DHT22;58875;51.996;4.504;2023-06-22T06:55:17;21.58;73.12
71173;DHT22;58875;51.996;4.504;2023-06-22T06:57:42;21.79;72.52
71173;DHT22;58875;51.996;4.504;2023-06-22T07:00:10;22.02;71.70
71173;DHT22;58875;51.996;4.504;2023-06-22T07:02:39;22.17;70.24
71173;DHT22;58875;51.996;4.504;2023-06-22T07:05:08;22.37;69.07
71173;DHT22;58875;51.996;4.504;2023-06-22T07:07:37;22.54;67.96
71173;DHT22;58875;51.996;4.504;2023-06-22T07:10:03;22.50;67.79
71173;DHT22;58875;51.996;4.504;2023-06-22T07:12:29;22.67;68.47
71173;DHT22;58875;51.996;4.504;2023-06-22T07:17:36;23.03;68.06
71173;DHT22;58875;51.996;4.504;2023-06-22T07:20:02;23.17;67.25
71173;DHT22;58875;51.996;4.504;2023-06-22T07:22:33;23.42;67.54
71173;DHT22;58875;51.996;4.504;2023-06-22T07:25:02;23.62;65.42
71173;DHT22;58875;51.996;4.504;2023-06-22T07:27:37;23.55;63.00
71173;DHT22;58875;51.996;4.504;2023-06-22T07:30:07;23.59;63.28
71173;DHT22;58875;51.996;4.504;2023-06-22T07:32:36;23.73;62.61
71173;DHT22;58875;51.996;4.504;2023-06-22T07:35:02;23.87;61.62
71173;DHT22;58875;51.996;4.504;2023-06-22T07:37:32;23.83;61.01
71173;DHT22;58875;51.996;4.504;2023-06-22T07:39:59;24.05;61.91
71173;DHT22;58875;51.996;4.504;2023-06-22T07:42:25;24.24;62.89
71173;DHT22;58875;51.996;4.504;2023-06-22T07:44:51;24.21;60.06
71173;DHT22;58875;51.996;4.504;2023-06-22T07:47:17;24.23;59.81
71173;DHT22;58875;51.996;4.504;2023-06-22T07:49:46;24.30;58.02
71173;DHT22;58875;51.996;4.504;2023-06-22T07:52:12;24.27;57.65
71173;DHT22;58875;51.996;4.504;2023-06-22T07:54:38;24.43;59.98
71173;DHT22;58875;51.996;4.504;2023-06-22T07:57:04;24.68;59.09
71173;DHT22;58875;51.996;4.504;2023-06-22T07:59:30;24.91;56.83
71173;DHT22;58875;51.996;4.504;2023-06-22T08:01:55;24.75;55.24
71173;DHT22;58875;51.996;4.504;2023-06-22T08:04:21;24.68;56.49
71173;DHT22;58875;51.996;4.504;2023-06-22T08:06:46;25.02;56.49
71173;DHT22;58875;51.996;4.504;2023-06-22T08:09:12;24.95;55.19
71173;DHT22;58875;51.996;4.504;2023-06-22T08:11:37;25.05;55.06
71173;DHT22;58875;51.996;4.504;2023-06-22T08:14:03;25.20;55.95
71173;DHT22;58875;51.996;4.504;2023-06-22T08:16:28;25.40;57.27
71173;DHT22;58875;51.996;4.504;2023-06-22T08:18:54;25.35;53.05
71173;DHT22;58875;51.996;4.504;2023-06-22T08:21:20;25.02;56.35
71173;DHT22;58875;51.996;4.504;2023-06-22T08:23:49;24.94;55.61
71173;DHT22;58875;51.996;4.504;2023-06-22T08:26:14;24.98;56.69
71173;DHT22;58875;51.996;4.504;2023-06-22T08:28:40;25.30;57.03
71173;DHT22;58875;51.996;4.504;2023-06-22T08:31:05;25.59;53.96
71173;DHT22;58875;51.996;4.504;2023-06-22T08:33:31;25.73;54.38
71173;DHT22;58875;51.996;4.504;2023-06-22T08:35:58;25.70;52.16
71173;DHT22;58875;51.996;4.504;2023-06-22T08:38:23;25.66;54.05
71173;DHT22;58875;51.996;4.504;2023-06-22T08:40:49;25.98;53.31
71173;DHT22;58875;51.996;4.504;2023-06-22T08:43:15;26.17;53.21
71173;DHT22;58875;51.996;4.504;2023-06-22T08:45:40;25.97;52.23
71173;DHT22;58875;51.996;4.504;2023-06-22T08:48:06;25.96;52.42
71173;DHT22;58875;51.996;4.504;2023-06-22T08:50:31;26.05;52.49
71173;DHT22;58875;51.996;4.504;2023-06-22T08:52:57;26.35;53.07
71173;DHT22;58875;51.996;4.504;2023-06-22T08:55:22;26.68;53.42
71173;DHT22;58875;51.996;4.504;2023-06-22T08:57:54;26.75;52.75
71173;DHT22;58875;51.996;4.504;2023-06-22T09:00:20;26.90;51.14
71173;DHT22;58875;51.996;4.504;2023-06-22T09:02:47;26.39;54.53
71173;DHT22;58875;51.996;4.504;2023-06-22T09:05:13;26.46;55.15
71173;DHT22;58875;51.996;4.504;2023-06-22T09:07:39;26.45;53.73
71173;DHT22;58875;51.996;4.504;2023-06-22T09:10:08;26.28;53.68
71173;DHT22;58875;51.996;4.504;2023-06-22T09:12:34;26.13;55.52
71173;DHT22;58875;51.996;4.504;2023-06-22T09:15:02;26.01;57.00
71173;DHT22;58875;51.996;4.504;2023-06-22T09:17:28;25.98;55.74
71173;DHT22;58875;51.996;4.504;2023-06-22T09:19:54;26.04;53.91
71173;DHT22;58875;51.996;4.504;2023-06-22T09:22:20;26.07;54.08
71173;DHT22;58875;51.996;4.504;2023-06-22T09:24:46;25.71;56.45
71173;DHT22;58875;51.996;4.504;2023-06-22T09:27:11;25.76;58.02
71173;DHT22;58875;51.996;4.504;2023-06-22T09:29:37;25.81;56.97
71173;DHT22;58875;51.996;4.504;2023-06-22T09:32:02;25.63;53.36
71173;DHT22;58875;51.996;4.504;2023-06-22T09:34:28;25.69;55.15
71173;DHT22;58875;51.996;4.504;2023-06-22T09:36:54;25.74;56.47
71173;DHT22;58875;51.996;4.504;2023-06-22T09:39:20;25.70;56.89
71173;DHT22;58875;51.996;4.504;2023-06-22T09:41:53;25.70;57.51
71173;DHT22;58875;51.996;4.504;2023-06-22T09:44:18;25.84;55.77
71173;DHT22;58875;51.996;4.504;2023-06-22T09:46:49;25.81;55.21
71173;DHT22;58875;51.996;4.504;2023-06-22T09:49:18;25.47;56.66
71173;DHT22;58875;51.996;4.504;2023-06-22T09:51:44;25.53;55.44
71173;DHT22;58875;51.996;4.504;2023-06-22T09:54:12;25.67;57.61
71173;DHT22;58875;51.996;4.504;2023-06-22T09:56:40;25.80;57.04
71173;DHT22;58875;51.996;4.504;2023-06-22T09:59:12;25.87;57.11
71173;DHT22;58875;51.996;4.504;2023-06-22T10:01:40;25.87;55.63
71173;DHT22;58875;51.996;4.504;2023-06-22T10:04:06;25.87;55.46
71173;DHT22;58875;51.996;4.504;2023-06-22T10:06:31;25.69;52.61
71173;DHT22;58875;51.996;4.504;2023-06-22T10:08:57;25.64;55.68
71173;DHT22;58875;51.996;4.504;2023-06-22T10:11:22;25.54;55.11
71173;DHT22;58875;51.996;4.504;2023-06-22T10:13:54;25.54;56.28
71173;DHT22;58875;51.996;4.504;2023-06-22T10:16:24;25.62;56.44
71173;DHT22;58875;51.996;4.504;2023-06-22T10:18:52;25.66;56.62
71173;DHT22;58875;51.996;4.504;2023-06-22T10:21:17;25.71;54.16
71173;DHT22;58875;51.996;4.504;2023-06-22T10:23:43;25.59;55.02
71173;DHT22;58875;51.996;4.504;2023-06-22T10:26:08;25.49;54.90
71173;DHT22;58875;51.996;4.504;2023-06-22T10:28:34;25.35;55.36
71173;DHT22;58875;51.996;4.504;2023-06-22T10:30:59;25.27;55.68
71173;DHT22;58875;51.996;4.504;2023-06-22T10:33:25;25.42;56.10
71173;DHT22;58875;51.996;4.504;2023-06-22T10:35:50;25.49;55.80
71173;DHT22;58875;51.996;4.504;2023-06-22T10:38:16;25.30;56.09
71173;DHT22;58875;51.996;4.504;2023-06-22T10:40:41;25.35;55.23
71173;DHT22;58875;51.996;4.504;2023-06-22T10:43:07;25.33;56.14
71173;DHT22;58875;51.996;4.504;2023-06-22T10:45:32;25.35;57.42
71173;DHT22;58875;51.996;4.504;2023-06-22T10:47:58;25.25;57.95
71173;DHT22;58875;51.996;4.504;2023-06-22T10:50:30;25.35;57.77
71173;DHT22;58875;51.996;4.504;2023-06-22T10:52:55;25.26;57.67
71173;DHT22;58875;51.996;4.504;2023-06-22T10:55:28;25.27;56.10
71173;DHT22;58875;51.996;4.504;2023-06-22T10:57:54;25.27;55.85
71173;DHT22;58875;51.996;4.504;2023-06-22T11:00:19;25.20;56.23
71173;DHT22;58875;51.996;4.504;2023-06-22T11:02:48;25.29;55.69
71173;DHT22;58875;51.996;4.504;2023-06-22T11:05:14;25.20;55.69
71173;DHT22;58875;51.996;4.504;2023-06-22T11:07:46;25.22;56.32
71173;DHT22;58875;51.996;4.504;2023-06-22T11:10:14;25.33;57.55
71173;DHT22;58875;51.996;4.504;2023-06-22T11:12:39;25.54;57.77
71173;DHT22;58875;51.996;4.504;2023-06-22T11:15:09;25.63;56.37
71173;DHT22;58875;51.996;4.504;2023-06-22T11:17:37;25.49;55.95
71173;DHT22;58875;51.996;4.504;2023-06-22T11:20:06;25.29;54.00
71173;DHT22;58875;51.996;4.504;2023-06-22T11:22:39;25.45;54.04
71173;DHT22;58875;51.996;4.504;2023-06-22T11:25:06;25.45;56.25
71173;DHT22;58875;51.996;4.504;2023-06-22T11:27:37;25.46;57.23
71173;DHT22;58875;51.996;4.504;2023-06-22T11:30:03;25.45;57.55
71173;DHT22;58875;51.996;4.504;2023-06-22T11:32:29;25.49;56.64
71173;DHT22;58875;51.996;4.504;2023-06-22T11:34:55;25.54;55.25
71173;DHT22;58875;51.996;4.504;2023-06-22T11:37:43;25.45;54.32
71173;DHT22;58875;51.996;4.504;2023-06-22T11:40:12;25.45;54.60
71173;DHT22;58875;51.996;4.504;2023-06-22T11:42:37;25.35;55.93
71173;DHT22;58875;51.996;4.504;2023-06-22T11:45:05;25.18;56.22
71173;DHT22;58875;51.996;4.504;2023-06-22T11:47:34;24.98;57.67
71173;DHT22;58875;51.996;4.504;2023-06-22T11:50:02;24.82;57.83
71173;DHT22;58875;51.996;4.504;2023-06-22T11:52:38;24.75;58.21
71173;DHT22;58875;51.996;4.504;2023-06-22T11:55:07;24.69;59.02
71173;DHT22;58875;51.996;4.504;2023-06-22T12:00:17;24.78;58.89
71173;DHT22;58875;51.996;4.504;2023-06-22T12:02:43;24.81;59.50
71173;DHT22;58875;51.996;4.504;2023-06-22T12:05:10;24.82;60.81
71173;DHT22;58875;51.996;4.504;2023-06-22T12:07:36;24.96;61.33
71173;DHT22;58875;51.996;4.504;2023-06-22T12:10:03;24.99;60.91
71173;DHT22;58875;51.996;4.504;2023-06-22T12:12:28;25.05;60.91
71173;DHT22;58875;51.996;4.504;2023-06-22T12:14:56;25.06;60.26
71173;DHT22;58875;51.996;4.504;2023-06-22T12:17:31;24.88;61.43
71173;DHT22;58875;51.996;4.504;2023-06-22T12:20:17;24.89;61.31
71173;DHT22;58875;51.996;4.504;2023-06-22T12:22:44;24.89;60.72
71173;DHT22;58875;51.996;4.504;2023-06-22T12:25:10;24.85;60.61
71173;DHT22;58875;51.996;4.504;2023-06-22T12:27:41;24.92;61.42
71173;DHT22;58875;51.996;4.504;2023-06-22T12:30:10;24.89;63.07
71173;DHT22;58875;51.996;4.504;2023-06-22T12:32:44;25.01;64.11
71173;DHT22;58875;51.996;4.504;2023-06-22T12:35:09;25.02;64.81
71173;DHT22;58875;51.996;4.504;2023-06-22T12:37:42;24.91;64.92
71173;DHT22;58875;51.996;4.504;2023-06-22T12:40:08;24.86;64.70
71173;DHT22;58875;51.996;4.504;2023-06-22T12:42:37;24.84;65.41
71173;DHT22;58875;51.996;4.504;2023-06-22T12:45:03;24.91;65.20
71173;DHT22;58875;51.996;4.504;2023-06-22T12:47:29;24.95;64.60
71173;DHT22;58875;51.996;4.504;2023-06-22T12:49:54;24.84;65.12
71173;DHT22;58875;51.996;4.504;2023-06-22T12:52:23;24.81;65.11
71173;DHT22;58875;51.996;4.504;2023-06-22T12:54:49;24.81;65.11
71173;DHT22;58875;51.996;4.504;2023-06-22T12:57:20;24.82;64.82
71173;DHT22;58875;51.996;4.504;2023-06-22T12:59:46;24.69;65.08
71173;DHT22;58875;51.996;4.504;2023-06-22T13:02:14;24.61;65.60
71173;DHT22;58875;51.996;4.504;2023-06-22T13:04:40;24.61;65.63
71173;DHT22;58875;51.996;4.504;2023-06-22T13:07:06;24.55;65.60
71173;DHT22;58875;51.996;4.504;2023-06-22T13:09:31;24.27;66.53
71173;DHT22;58875;51.996;4.504;2023-06-22T13:11:59;24.36;66.22
71173;DHT22;58875;51.996;4.504;2023-06-22T13:14:25;24.45;66.24
71173;DHT22;58875;51.996;4.504;2023-06-22T13:16:50;24.33;66.73
71173;DHT22;58875;51.996;4.504;2023-06-22T13:19:16;24.26;67.22
71173;DHT22;58875;51.996;4.504;2023-06-22T13:21:42;24.31;67.37
71173;DHT22;58875;51.996;4.504;2023-06-22T13:24:07;24.30;67.64
71173;DHT22;58875;51.996;4.504;2023-06-22T13:26:33;24.28;67.68
71173;DHT22;58875;51.996;4.504;2023-06-22T13:28:59;24.27;67.93
71173;DHT22;58875;51.996;4.504;2023-06-22T13:31:24;24.21;67.57
71173;DHT22;58875;51.996;4.504;2023-06-22T13:33:50;24.21;68.42
71173;DHT22;58875;51.996;4.504;2023-06-22T13:36:17;24.14;67.85
71173;DHT22;58875;51.996;4.504;2023-06-22T13:38:43;24.02;68.82
71173;DHT22;58875;51.996;4.504;2023-06-22T13:41:09;23.89;68.12
71173;DHT22;58875;51.996;4.504;2023-06-22T13:43:34;23.87;68.48
71173;DHT22;58875;51.996;4.504;2023-06-22T13:46:00;23.92;68.26
71173;DHT22;58875;51.996;4.504;2023-06-22T13:48:26;23.97;68.59
71173;DHT22;58875;51.996;4.504;2023-06-22T13:50:54;23.95;68.74
71173;DHT22;58875;51.996;4.504;2023-06-22T13:53:19;24.02;68.85
71173;DHT22;58875;51.996;4.504;2023-06-22T13:55:45;23.95;69.41
71173;DHT22;58875;51.996;4.504;2023-06-22T13:58:12;24.02;69.29
71173;DHT22;58875;51.996;4.504;2023-06-22T14:00:37;23.87;70.06
71173;DHT22;58875;51.996;4.504;2023-06-22T14:03:03;23.76;70.50
71173;DHT22;58875;51.996;4.504;2023-06-22T14:05:28;23.90;71.01
71173;DHT22;58875;51.996;4.504;2023-06-22T14:07:54;24.02;70.57
71173;DHT22;58875;51.996;4.504;2023-06-22T14:10:19;23.92;71.07
71173;DHT22;58875;51.996;4.504;2023-06-22T14:12:45;23.90;71.32
71173;DHT22;58875;51.996;4.504;2023-06-22T14:15:11;23.85;71.08
71173;DHT22;58875;51.996;4.504;2023-06-22T14:17:36;23.75;71.44
71173;DHT22;58875;51.996;4.504;2023-06-22T14:20:02;23.83;71.93
71173;DHT22;58875;51.996;4.504;2023-06-22T14:22:28;23.97;72.01
71173;DHT22;58875;51.996;4.504;2023-06-22T14:24:55;23.92;71.83
71173;DHT22;58875;51.996;4.504;2023-06-22T14:27:23;23.89;72.23
71173;DHT22;58875;51.996;4.504;2023-06-22T14:29:48;23.92;72.44
71173;DHT22;58875;51.996;4.504;2023-06-22T14:32:21;23.77;72.74
71173;DHT22;58875;51.996;4.504;2023-06-22T14:34:47;23.48;72.99
71173;DHT22;58875;51.996;4.504;2023-06-22T14:37:12;23.37;73.55
71173;DHT22;58875;51.996;4.504;2023-06-22T14:39:39;23.44;74.00
71173;DHT22;58875;51.996;4.504;2023-06-22T14:42:08;23.48;74.30
71173;DHT22;58875;51.996;4.504;2023-06-22T14:44:34;23.49;74.07
71173;DHT22;58875;51.996;4.504;2023-06-22T14:47:03;23.44;74.00
71173;DHT22;58875;51.996;4.504;2023-06-22T14:49:29;23.34;74.56
71173;DHT22;58875;51.996;4.504;2023-06-22T14:51:55;23.32;74.64
71173;DHT22;58875;51.996;4.504;2023-06-22T14:54:21;23.35;75.19
71173;DHT22;58875;51.996;4.504;2023-06-22T14:56:50;23.38;74.95
71173;DHT22;58875;51.996;4.504;2023-06-22T14:59:18;23.42;74.98
71173;DHT22;58875;51.996;4.504;2023-06-22T15:01:44;23.29;75.20
71173;DHT22;58875;51.996;4.504;2023-06-22T15:04:10;23.31;74.73
71173;DHT22;58875;51.996;4.504;2023-06-22T15:06:35;23.26;73.56
71173;DHT22;58875;51.996;4.504;2023-06-22T15:09:01;23.04;72.52
71173;DHT22;58875;51.996;4.504;2023-06-22T15:11:27;22.97;72.97
71173;DHT22;58875;51.996;4.504;2023-06-22T15:13:52;22.95;72.03
71173;DHT22;58875;51.996;4.504;2023-06-22T15:16:20;22.83;71.51
71173;DHT22;58875;51.996;4.504;2023-06-22T15:18:46;22.64;72.15
71173;DHT22;58875;51.996;4.504;2023-06-22T15:21:13;22.57;71.92
71173;DHT22;58875;51.996;4.504;2023-06-22T15:23:38;22.54;71.79
71173;DHT22;58875;51.996;4.504;2023-06-22T15:26:04;22.57;71.87
71173;DHT22;58875;51.996;4.504;2023-06-22T15:28:33;22.56;72.58
71173;DHT22;58875;51.996;4.504;2023-06-22T15:31:01;22.66;74.00
71173;DHT22;58875;51.996;4.504;2023-06-22T15:33:26;22.74;74.20
71173;DHT22;58875;51.996;4.504;2023-06-22T15:35:52;22.70;73.15
71173;DHT22;58875;51.996;4.504;2023-06-22T15:38:21;22.54;72.27
71173;DHT22;58875;51.996;4.504;2023-06-22T15:40:46;22.50;73.06
71173;DHT22;58875;51.996;4.504;2023-06-22T15:43:12;22.56;74.63
71173;DHT22;58875;51.996;4.504;2023-06-22T15:45:39;22.60;75.17